»·PEaware :: SWA4342 KSNA-KLAS

SWA4342 :: KSNA-KLAS

FLIGHT INFORMATION

Flight Status: Arrived
Operator:
Southwest Airlines
More flights by this operator :: More flights under this callsign
Pilot: Cody B. (17747)
Aircraft: BOEING 737-800
(B738)
More flights by this aircraft type
Origin: KSNA John Wayne-Orange Co
United States
Destination: KLAS McCarran Intl
United States
More flights between these airports :: More routes between these airports
Route: +FINZZ2 MISEN KEPEC6
File this flight plan on PilotEdge
Remarks: PBN / A1B1C1D1S1S2 DOF / 181001 REG / N8301J CODE / AB5ADE OPR / SWA PER / C RMK / TCAS SIMBRIEF
Altitude:
(Current/Filed)
29,000ft
Speed:
(Current/Filed)
440kts
Departed: 01-Oct-18 12:00 PM
Arrived: 01-Oct-18 12:51 PM
Distance/Time
Traveled:
197nm/0:51
Distance/Time
To Go:
Arrived

Flight Plot

Page will automatically refresh every two minutes.

Flight plan parsing failed; only flown route is shown


Map Options




Map Legend


Flown Route
Filed Route
Departure Airport
Arrival Airport
Navaid (VOR, NDB)
Fix

Horizontal Profiles

Position Reports

Time Latitude Longitude Heading Altitude Ground
Speed
01-Oct-18 11:38 33.676837 -117.863962 117 64ft 0kts
01-Oct-18 11:39 33.676837 -117.863962 117 64ft 0kts
01-Oct-18 11:40 33.676837 -117.863962 117 64ft 0kts
01-Oct-18 11:41 33.676837 -117.863962 117 64ft 0kts
01-Oct-18 11:42 33.676837 -117.863962 117 64ft 0kts
01-Oct-18 11:43 33.676837 -117.863962 117 64ft 0kts
01-Oct-18 11:44 33.676837 -117.863962 117 64ft 0kts
01-Oct-18 11:45 33.676837 -117.863962 117 64ft 0kts
01-Oct-18 11:46 33.676837 -117.863962 117 64ft 0kts
01-Oct-18 11:47 33.676837 -117.863962 117 64ft 0kts
01-Oct-18 11:48 33.676837 -117.863962 117 64ft 0kts
01-Oct-18 11:49 33.676837 -117.863962 117 64ft 0kts
01-Oct-18 11:50 33.676921 -117.864157 118 64ft 2kts
01-Oct-18 11:51 33.677079 -117.864583 63 64ft 1kts
01-Oct-18 11:52 33.677012 -117.864662 27 64ft 0kts
01-Oct-18 11:53 33.677012 -117.864662 27 64ft 0kts
01-Oct-18 11:54 33.677012 -117.864662 27 64ft 0kts
01-Oct-18 11:55 33.677196 -117.864540 29 64ft 4kts
01-Oct-18 11:56 33.678882 -117.863460 28 64ft 11kts
01-Oct-18 11:57 33.680642 -117.863089 299 64ft 0kts
01-Oct-18 11:58 33.680642 -117.863089 299 64ft 0kts
01-Oct-18 11:59 33.680642 -117.863089 299 64ft 0kts
01-Oct-18 12:00 33.681043 -117.863971 297 64ft 8kts
01-Oct-18 12:01 33.681348 -117.865288 207 64ft 0kts
01-Oct-18 12:02 33.664701 -117.876033 212 652ft 168kts
01-Oct-18 12:03 33.607378 -117.894652 185 3893ft 277kts
01-Oct-18 12:04 33.535767 -117.921303 220 6992ft 284kts
01-Oct-18 12:05 33.502909 -118.002565 270 7649ft 284kts
01-Oct-18 12:06 33.542285 -118.080543 314 9526ft 294kts
01-Oct-18 12:07 33.621497 -118.108020 9 11608ft 335kts
01-Oct-18 12:08 33.700918 -118.065100 27 14192ft 351kts
01-Oct-18 12:09 33.787867 -118.014013 26 16961ft 369kts
01-Oct-18 12:10 33.879167 -117.960681 26 19530ft 379kts
01-Oct-18 12:11 33.967181 -117.891371 41 21891ft 394kts
01-Oct-18 12:12 34.053878 -117.809748 37 23983ft 411kts
01-Oct-18 12:13 34.131690 -117.715435 52 25882ft 423kts
01-Oct-18 12:14 34.203345 -117.608624 52 27635ft 435kts
01-Oct-18 12:15 34.280022 -117.494370 52 28944ft 449kts
01-Oct-18 12:16 34.358508 -117.377038 52 28998ft 455kts
01-Oct-18 12:17 34.436239 -117.260501 52 28999ft 457kts
01-Oct-18 12:18 34.515836 -117.140806 52 29003ft 460kts
01-Oct-18 12:19 34.597315 -117.020524 51 29016ft 471kts
01-Oct-18 12:20 34.682646 -116.896165 51 29000ft 490kts
01-Oct-18 12:21 34.769242 -116.769427 51 28983ft 467kts
01-Oct-18 12:22 34.851708 -116.649276 47 28956ft 455kts
01-Oct-18 12:23 34.947451 -116.553748 38 27400ft 452kts
01-Oct-18 12:24 35.044087 -116.460384 38 25433ft 438kts
01-Oct-18 12:25 35.124980 -116.376779 46 24060ft 422kts
01-Oct-18 12:26 35.198089 -116.283990 46 24024ft 428kts
01-Oct-18 12:27 35.280456 -116.180511 46 22660ft 418kts
01-Oct-18 12:28 35.359941 -116.080371 47 20649ft 405kts
01-Oct-18 12:29 35.436815 -115.983133 46 18640ft 391kts
01-Oct-18 12:30 35.511098 -115.889064 46 16638ft 378kts
01-Oct-18 12:31 35.582959 -115.797852 46 14636ft 367kts
01-Oct-18 12:32 35.651371 -115.710717 46 13062ft 338kts
01-Oct-18 12:33 35.713421 -115.631480 46 13064ft 321kts
01-Oct-18 12:34 35.787233 -115.576217 7 13073ft 321kts
01-Oct-18 12:35 35.875693 -115.569158 1 13060ft 321kts
01-Oct-18 12:36 35.958980 -115.539531 38 12838ft 321kts
01-Oct-18 12:37 36.005758 -115.454197 69 11851ft 296kts
01-Oct-18 12:38 36.033092 -115.364331 76 10786ft 286kts
01-Oct-18 12:39 36.029911 -115.277859 110 9490ft 282kts
01-Oct-18 12:40 36.001843 -115.192204 91 8106ft 283kts
01-Oct-18 12:41 36.002666 -115.102966 118 8038ft 249kts
01-Oct-18 12:42 35.942691 -115.090956 191 8058ft 241kts
01-Oct-18 12:43 35.877604 -115.108103 191 8082ft 242kts
01-Oct-18 12:44 35.840216 -115.160002 279 8089ft 247kts
01-Oct-18 12:45 35.856577 -115.241114 281 8066ft 238kts
01-Oct-18 12:46 35.906607 -115.287476 342 7620ft 243kts
01-Oct-18 12:47 35.969373 -115.310901 344 6409ft 231kts
01-Oct-18 12:48 36.028095 -115.317735 25 4848ft 207kts
01-Oct-18 12:49 36.068257 -115.284249 74 4004ft 176kts
01-Oct-18 12:50 36.072663 -115.234353 100 3200ft 141kts
01-Oct-18 12:51 36.073757 -115.189150 93 2682ft 139kts
01-Oct-18 12:52 36.073610 -115.147700 89 2189ft 60kts
01-Oct-18 12:53 36.074611 -115.138815 60 2189ft 0kts
01-Oct-18 12:54 36.074742 -115.138508 62 2189ft 0kts
01-Oct-18 12:55 36.074744 -115.138503 62 2189ft 0kts
01-Oct-18 12:56 36.076453 -115.137921 0 2189ft 12kts
01-Oct-18 12:57 36.078053 -115.138040 327 2189ft 6kts
01-Oct-18 12:58 36.078261 -115.140636 269 2189ft 10kts
01-Oct-18 12:59 36.078382 -115.145379 273 2189ft 16kts
01-Oct-18 13:00 36.079681 -115.148500 335 2189ft 10kts
01-Oct-18 13:01 36.081729 -115.149661 337 2189ft 1kts
01-Oct-18 13:02 36.082143 -115.149991 255 2189ft 1kts
01-Oct-18 13:03 36.082157 -115.150651 328 2189ft 1kts
01-Oct-18 13:04 36.082307 -115.150718 345 2189ft 0kts
01-Oct-18 13:05 36.082307 -115.150718 345 2189ft 0kts
01-Oct-18 13:06 36.082307 -115.150718 345 2189ft 0kts
01-Oct-18 13:07 36.082307 -115.150718 345 2189ft 0kts

Navigation Log

Ident Type
Flight plan parsing failed, navigation log unavailable